ELY5108 UGTB-LLBG
Flight info
| Callsign | ELY5108 |
|---|---|
| Flight time | 2h 33m |
| Altitude | 36000 |
| Route | ZAGOT DCT NOLGA UG261 TBN UW706 SIV UT284 EVKIT UB545 VESAR DCT EMEDA DCT TUZIB L189 ZUKKO |
| Aircraft | B738/M-SDE2E3FGHIRWXY/LB1 |
Departure
| Time | 2026-04-25 09:00 |
|---|---|
| Airport | Tbilisi International Airport (UGTB) |
Arrival
| Time | 2026-04-25 11:34 |
|---|---|
| Airport | Ben Gurion International Airport (LLBG) |
| Time | Latitude | Longitude | Altitude | Speed | Heading |
|---|---|---|---|---|---|
| 2026-04-25 08:49 | 41.67034 | 44.96135 | 1525 ft | 0 kts | 43° |
| 2026-04-25 08:52 | 41.67020 | 44.96118 | 1517 ft | 4 kts | 43° |
| 2026-04-25 08:52 | 41.67000 | 44.96093 | 1522 ft | 3 kts | 43° |
| 2026-04-25 08:52 | 41.66985 | 44.96070 | 1517 ft | 4 kts | 79° |
| 2026-04-25 08:52 | 41.66991 | 44.96040 | 1519 ft | 4 kts | 131° |
| 2026-04-25 08:53 | 41.67000 | 44.96027 | 1518 ft | 1 kts | 133° |
| 2026-04-25 08:53 | 41.67000 | 44.96026 | 1518 ft | 0 kts | 133° |
| 2026-04-25 08:55 | 41.66992 | 44.96038 | 1525 ft | 5 kts | 133° |
| 2026-04-25 08:56 | 41.66948 | 44.96100 | 1523 ft | 13 kts | 133° |
| 2026-04-25 08:56 | 41.66890 | 44.96192 | 1523 ft | 13 kts | 130° |
| 2026-04-25 08:56 | 41.66830 | 44.96279 | 1520 ft | 13 kts | 133° |
| 2026-04-25 08:56 | 41.66770 | 44.96363 | 1524 ft | 12 kts | 133° |
| 2026-04-25 08:57 | 41.66703 | 44.96425 | 1523 ft | 12 kts | 169° |
| 2026-04-25 08:57 | 41.66622 | 44.96409 | 1522 ft | 12 kts | 193° |
| 2026-04-25 08:57 | 41.66533 | 44.96381 | 1520 ft | 15 kts | 193° |
| 2026-04-25 08:57 | 41.66420 | 44.96346 | 1523 ft | 18 kts | 193° |
| 2026-04-25 08:58 | 41.66302 | 44.96309 | 1525 ft | 17 kts | 194° |
| 2026-04-25 08:58 | 41.66188 | 44.96311 | 1523 ft | 16 kts | 162° |
| 2026-04-25 08:58 | 41.66096 | 44.96395 | 1525 ft | 16 kts | 136° |
| 2026-04-25 08:58 | 41.66018 | 44.96495 | 1521 ft | 15 kts | 136° |
| 2026-04-25 08:59 | 41.65942 | 44.96588 | 1525 ft | 12 kts | 146° |
| 2026-04-25 08:59 | 41.65864 | 44.96579 | 1525 ft | 12 kts | 217° |
| 2026-04-25 08:59 | 41.65844 | 44.96481 | 1524 ft | 11 kts | 279° |
| 2026-04-25 08:59 | 41.65889 | 44.96399 | 1523 ft | 11 kts | 316° |
| 2026-04-25 09:00 | 41.66012 | 44.96242 | 1518 ft | 53 kts | 316° |
| 2026-04-25 09:00 | 41.66448 | 44.95694 | 1523 ft | 117 kts | 317° |
| 2026-04-25 09:00 | 41.67136 | 44.94775 | 1737 ft | 150 kts | 313° |
| 2026-04-25 09:00 | 41.67894 | 44.93831 | 2643 ft | 148 kts | 318° |
| 2026-04-25 09:01 | 41.68677 | 44.92926 | 3510 ft | 150 kts | 319° |
| 2026-04-25 09:01 | 41.69463 | 44.91975 | 4264 ft | 156 kts | 315° |
| 2026-04-25 09:01 | 41.70270 | 44.90946 | 4979 ft | 165 kts | 314° |
| 2026-04-25 09:01 | 41.71119 | 44.89865 | 5693 ft | 174 kts | 312° |
| 2026-04-25 09:02 | 41.72034 | 44.88710 | 6201 ft | 184 kts | 312° |
| 2026-04-25 09:02 | 41.72980 | 44.87520 | 6723 ft | 190 kts | 311° |
| 2026-04-25 09:02 | 41.73991 | 44.86242 | 7035 ft | 207 kts | 311° |
| 2026-04-25 09:02 | 41.74780 | 44.84595 | 7299 ft | 216 kts | 280° |
| 2026-04-25 09:03 | 41.74937 | 44.82552 | 7753 ft | 231 kts | 274° |
| 2026-04-25 09:03 | 41.75055 | 44.80310 | 8199 ft | 247 kts | 274° |
| 2026-04-25 09:03 | 41.75172 | 44.77997 | 9055 ft | 249 kts | 273° |
| 2026-04-25 09:03 | 41.75290 | 44.75689 | 9998 ft | 248 kts | 273° |
| 2026-04-25 09:04 | 41.75411 | 44.73343 | 10539 ft | 262 kts | 273° |
| 2026-04-25 09:04 | 41.75544 | 44.70795 | 10721 ft | 286 kts | 273° |
| 2026-04-25 09:04 | 41.75689 | 44.68033 | 10974 ft | 306 kts | 273° |
| 2026-04-25 09:04 | 41.75840 | 44.65196 | 11602 ft | 311 kts | 273° |
| 2026-04-25 09:05 | 41.75995 | 44.62289 | 12340 ft | 314 kts | 274° |
| 2026-04-25 09:05 | 41.76151 | 44.59358 | 13163 ft | 316 kts | 274° |
| 2026-04-25 09:05 | 41.76307 | 44.56419 | 13979 ft | 317 kts | 274° |
| 2026-04-25 09:05 | 41.76393 | 44.53463 | 14637 ft | 319 kts | 268° |
| 2026-04-25 09:06 | 41.76090 | 44.50501 | 15303 ft | 324 kts | 260° |
| 2026-04-25 09:06 | 41.75594 | 44.47542 | 15957 ft | 327 kts | 260° |
| 2026-04-25 09:06 | 41.75078 | 44.44557 | 16646 ft | 330 kts | 259° |
| 2026-04-25 09:06 | 41.74558 | 44.41556 | 17361 ft | 332 kts | 260° |
| 2026-04-25 09:07 | 41.74034 | 44.38522 | 17954 ft | 336 kts | 260° |
| 2026-04-25 09:07 | 41.73506 | 44.35453 | 18551 ft | 341 kts | 260° |
| 2026-04-25 09:07 | 41.72973 | 44.32343 | 19053 ft | 345 kts | 261° |
| 2026-04-25 09:07 | 41.72432 | 44.29195 | 19527 ft | 349 kts | 261° |
| 2026-04-25 09:08 | 41.71888 | 44.26014 | 20030 ft | 353 kts | 261° |
| 2026-04-25 09:08 | 41.71338 | 44.22799 | 20518 ft | 356 kts | 261° |
| 2026-04-25 09:08 | 41.70782 | 44.19550 | 20975 ft | 360 kts | 261° |
| 2026-04-25 09:08 | 41.70219 | 44.16261 | 21451 ft | 364 kts | 261° |
| 2026-04-25 09:09 | 41.69649 | 44.12942 | 21916 ft | 368 kts | 261° |
| 2026-04-25 09:09 | 41.69071 | 44.09588 | 22367 ft | 372 kts | 261° |
| 2026-04-25 09:09 | 41.68487 | 44.06199 | 22810 ft | 376 kts | 261° |
| 2026-04-25 09:09 | 41.67895 | 44.02771 | 23253 ft | 380 kts | 261° |
| 2026-04-25 09:10 | 41.67297 | 43.99311 | 23669 ft | 384 kts | 261° |
| 2026-04-25 09:10 | 41.66692 | 43.95823 | 24049 ft | 387 kts | 261° |
| 2026-04-25 09:10 | 41.66081 | 43.92311 | 24455 ft | 389 kts | 261° |
| 2026-04-25 09:10 | 41.65466 | 43.88781 | 24842 ft | 391 kts | 261° |
| 2026-04-25 09:11 | 41.64223 | 43.81668 | 25586 ft | 395 kts | 261° |
| 2026-04-25 09:11 | 41.63595 | 43.78080 | 25953 ft | 398 kts | 261° |
| 2026-04-25 09:11 | 41.62962 | 43.74471 | 26283 ft | 400 kts | 261° |
| 2026-04-25 09:12 | 41.62324 | 43.70846 | 26632 ft | 402 kts | 261° |
| 2026-04-25 09:12 | 41.61682 | 43.67200 | 26983 ft | 404 kts | 261° |
| 2026-04-25 09:12 | 41.61035 | 43.63535 | 27338 ft | 407 kts | 261° |
| 2026-04-25 09:12 | 41.60383 | 43.59847 | 27674 ft | 409 kts | 260° |
| 2026-04-25 09:13 | 41.59726 | 43.56141 | 27986 ft | 411 kts | 260° |
| 2026-04-25 09:13 | 41.59074 | 43.52464 | 28293 ft | 414 kts | 260° |
| 2026-04-25 09:13 | 41.58406 | 43.48714 | 28587 ft | 416 kts | 260° |
| 2026-04-25 09:13 | 41.57735 | 43.44948 | 28877 ft | 418 kts | 260° |
| 2026-04-25 09:14 | 41.57060 | 43.41168 | 29198 ft | 419 kts | 260° |
| 2026-04-25 09:14 | 41.56383 | 43.37390 | 29632 ft | 418 kts | 260° |
| 2026-04-25 09:14 | 41.55706 | 43.33624 | 30078 ft | 416 kts | 260° |
| 2026-04-25 09:14 | 41.55032 | 43.29876 | 30446 ft | 415 kts | 260° |
| 2026-04-25 09:15 | 41.54358 | 43.26137 | 30852 ft | 413 kts | 260° |
| 2026-04-25 09:15 | 41.53687 | 43.22425 | 31296 ft | 409 kts | 260° |
| 2026-04-25 09:15 | 41.53021 | 43.18746 | 31725 ft | 406 kts | 259° |
| 2026-04-25 09:15 | 41.52360 | 43.15096 | 32098 ft | 404 kts | 259° |
| 2026-04-25 09:16 | 41.51699 | 43.11455 | 32467 ft | 403 kts | 259° |
| 2026-04-25 09:16 | 41.51040 | 43.07831 | 32823 ft | 401 kts | 259° |
| 2026-04-25 09:16 | 41.50383 | 43.04223 | 33237 ft | 399 kts | 259° |
| 2026-04-25 09:16 | 41.49730 | 43.00646 | 33647 ft | 396 kts | 259° |
| 2026-04-25 09:17 | 41.48430 | 42.93543 | 34323 ft | 393 kts | 259° |
| 2026-04-25 09:17 | 41.47781 | 42.90007 | 34553 ft | 393 kts | 259° |
| 2026-04-25 09:17 | 41.47130 | 42.86465 | 34762 ft | 394 kts | 259° |
| 2026-04-25 09:18 | 41.46477 | 42.82918 | 34981 ft | 394 kts | 258° |
| 2026-04-25 09:18 | 41.45823 | 42.79374 | 35230 ft | 393 kts | 258° |
| 2026-04-25 09:18 | 41.45168 | 42.75833 | 35428 ft | 394 kts | 258° |
| 2026-04-25 09:18 | 41.44510 | 42.72282 | 35597 ft | 395 kts | 258° |
| 2026-04-25 09:19 | 41.43850 | 42.68726 | 35800 ft | 395 kts | 258° |
| 2026-04-25 09:19 | 41.43188 | 42.65171 | 36023 ft | 395 kts | 258° |
| 2026-04-25 09:19 | 41.42527 | 42.61624 | 36201 ft | 394 kts | 258° |
| 2026-04-25 09:20 | 41.41196 | 42.54497 | 36204 ft | 397 kts | 258° |
| 2026-04-25 09:20 | 41.39859 | 42.47373 | 36207 ft | 396 kts | 258° |
| 2026-04-25 09:21 | 41.38521 | 42.40264 | 36214 ft | 396 kts | 258° |
| 2026-04-25 09:21 | 41.37179 | 42.33158 | 36211 ft | 396 kts | 258° |
| 2026-04-25 09:22 | 41.35831 | 42.26050 | 36197 ft | 396 kts | 258° |
| 2026-04-25 09:22 | 41.34438 | 42.18972 | 36213 ft | 395 kts | 255° |
| 2026-04-25 09:23 | 41.32741 | 42.12056 | 36217 ft | 396 kts | 253° |
| 2026-04-25 09:23 | 41.30954 | 42.05124 | 36192 ft | 397 kts | 253° |
| 2026-04-25 09:24 | 41.29181 | 41.98172 | 36207 ft | 397 kts | 253° |
| 2026-04-25 09:24 | 41.27418 | 41.91194 | 36196 ft | 399 kts | 254° |
| 2026-04-25 09:25 | 41.25653 | 41.84192 | 36209 ft | 400 kts | 253° |
| 2026-04-25 09:25 | 41.23879 | 41.77165 | 36198 ft | 402 kts | 254° |
| 2026-04-25 09:26 | 41.22096 | 41.70120 | 36200 ft | 402 kts | 253° |
| 2026-04-25 09:26 | 41.20314 | 41.63105 | 36207 ft | 400 kts | 253° |
| 2026-04-25 09:27 | 41.18529 | 41.56097 | 36191 ft | 402 kts | 253° |
| 2026-04-25 09:27 | 41.16731 | 41.49059 | 36187 ft | 403 kts | 253° |
| 2026-04-25 09:28 | 41.14924 | 41.42006 | 36195 ft | 405 kts | 253° |
| 2026-04-25 09:28 | 41.13413 | 41.36125 | 36193 ft | 406 kts | 253° |
| 2026-04-25 09:29 | 41.11587 | 41.29035 | 36203 ft | 406 kts | 253° |
| 2026-04-25 09:29 | 41.09752 | 41.21933 | 36205 ft | 408 kts | 253° |
| 2026-04-25 09:30 | 41.07909 | 41.14821 | 36210 ft | 407 kts | 253° |
| 2026-04-25 09:30 | 41.06063 | 41.07718 | 36202 ft | 408 kts | 253° |
| 2026-04-25 09:31 | 41.04214 | 41.00624 | 36199 ft | 407 kts | 253° |
| 2026-04-25 09:31 | 41.02363 | 40.93543 | 36209 ft | 406 kts | 253° |
| 2026-04-25 09:32 | 41.00510 | 40.86473 | 36206 ft | 406 kts | 253° |
| 2026-04-25 09:32 | 40.98654 | 40.79414 | 36205 ft | 406 kts | 253° |
| 2026-04-25 09:33 | 40.96796 | 40.72366 | 36200 ft | 406 kts | 253° |
| 2026-04-25 09:33 | 40.94932 | 40.65317 | 36196 ft | 406 kts | 253° |
| 2026-04-25 09:34 | 40.93064 | 40.58270 | 36193 ft | 406 kts | 252° |
| 2026-04-25 09:34 | 40.91200 | 40.51264 | 36179 ft | 407 kts | 252° |
| 2026-04-25 09:35 | 40.89317 | 40.44202 | 36180 ft | 408 kts | 252° |
| 2026-04-25 09:35 | 40.87427 | 40.37135 | 36183 ft | 408 kts | 252° |
| 2026-04-25 09:36 | 40.85526 | 40.30049 | 36179 ft | 410 kts | 252° |
| 2026-04-25 09:36 | 40.83618 | 40.22954 | 36189 ft | 410 kts | 252° |
| 2026-04-25 09:37 | 40.81704 | 40.15858 | 36185 ft | 411 kts | 252° |
| 2026-04-25 09:37 | 40.79779 | 40.08742 | 36181 ft | 412 kts | 252° |
| 2026-04-25 09:38 | 40.77843 | 40.01607 | 36165 ft | 413 kts | 252° |
| 2026-04-25 09:38 | 40.75900 | 39.94465 | 36182 ft | 414 kts | 252° |
| 2026-04-25 09:39 | 40.73950 | 39.87318 | 36181 ft | 414 kts | 252° |
| 2026-04-25 09:39 | 40.71992 | 39.80165 | 36173 ft | 414 kts | 251° |
| 2026-04-25 09:40 | 40.69054 | 39.69464 | 36166 ft | 414 kts | 251° |
| 2026-04-25 09:40 | 40.67089 | 39.62334 | 36166 ft | 414 kts | 251° |
| 2026-04-25 09:41 | 40.65133 | 39.55255 | 36149 ft | 415 kts | 251° |
| 2026-04-25 09:41 | 40.63157 | 39.48124 | 36148 ft | 415 kts | 251° |
| 2026-04-25 09:42 | 40.61177 | 39.41000 | 36150 ft | 414 kts | 251° |
| 2026-04-25 09:42 | 40.59192 | 39.33876 | 36136 ft | 415 kts | 251° |
| 2026-04-25 09:43 | 40.57202 | 39.26753 | 36150 ft | 415 kts | 251° |
| 2026-04-25 09:43 | 40.55206 | 39.19632 | 36139 ft | 415 kts | 251° |
| 2026-04-25 09:44 | 40.53205 | 39.12512 | 36141 ft | 416 kts | 251° |
| 2026-04-25 09:44 | 40.51196 | 39.05385 | 36143 ft | 416 kts | 251° |
| 2026-04-25 09:45 | 40.49184 | 38.98263 | 36143 ft | 416 kts | 250° |
| 2026-04-25 09:45 | 40.47165 | 38.91139 | 36145 ft | 416 kts | 250° |
| 2026-04-25 09:46 | 40.45143 | 38.84023 | 36150 ft | 416 kts | 250° |
| 2026-04-25 09:46 | 40.43112 | 38.76893 | 36145 ft | 417 kts | 250° |
| 2026-04-25 09:47 | 40.41090 | 38.69816 | 36152 ft | 417 kts | 250° |
| 2026-04-25 09:47 | 40.39046 | 38.62684 | 36148 ft | 418 kts | 250° |
| 2026-04-25 09:48 | 40.36996 | 38.55546 | 36151 ft | 418 kts | 250° |
| 2026-04-25 09:48 | 40.34938 | 38.48403 | 36152 ft | 419 kts | 250° |
| 2026-04-25 09:49 | 40.32875 | 38.41261 | 36140 ft | 419 kts | 250° |
| 2026-04-25 09:49 | 40.30806 | 38.34119 | 36148 ft | 419 kts | 250° |
| 2026-04-25 09:50 | 40.28732 | 38.26979 | 36137 ft | 419 kts | 249° |
| 2026-04-25 09:50 | 40.26654 | 38.19843 | 36141 ft | 419 kts | 250° |
| 2026-04-25 09:51 | 40.24572 | 38.12714 | 36134 ft | 419 kts | 250° |
| 2026-04-25 09:51 | 40.22487 | 38.05592 | 36135 ft | 419 kts | 249° |
| 2026-04-25 09:52 | 40.20398 | 37.98478 | 36132 ft | 419 kts | 249° |
| 2026-04-25 09:52 | 40.18308 | 37.91380 | 36129 ft | 418 kts | 249° |
| 2026-04-25 09:53 | 40.16214 | 37.84285 | 36127 ft | 418 kts | 249° |
| 2026-04-25 09:53 | 40.14117 | 37.77198 | 36131 ft | 418 kts | 249° |
| 2026-04-25 09:54 | 40.12016 | 37.70118 | 36126 ft | 418 kts | 249° |
| 2026-04-25 09:54 | 40.09913 | 37.63045 | 36124 ft | 418 kts | 249° |
| 2026-04-25 09:55 | 40.07730 | 37.56068 | 36119 ft | 418 kts | 243° |
| 2026-04-25 09:55 | 40.04905 | 37.49442 | 36126 ft | 418 kts | 241° |
| 2026-04-25 09:56 | 40.02041 | 37.42852 | 36127 ft | 417 kts | 241° |
| 2026-04-25 09:56 | 39.99196 | 37.36255 | 36126 ft | 417 kts | 242° |
| 2026-04-25 09:57 | 39.96362 | 37.29662 | 36132 ft | 416 kts | 242° |
| 2026-04-25 09:57 | 39.93531 | 37.23083 | 36149 ft | 416 kts | 242° |
| 2026-04-25 09:58 | 39.90699 | 37.16515 | 36158 ft | 415 kts | 242° |
| 2026-04-25 09:58 | 39.87405 | 37.10353 | 36170 ft | 417 kts | 227° |
| 2026-04-25 09:59 | 39.82817 | 37.05699 | 36186 ft | 421 kts | 215° |
| 2026-04-25 09:59 | 39.77864 | 37.01658 | 36188 ft | 420 kts | 215° |
| 2026-04-25 10:00 | 39.72911 | 36.97622 | 36183 ft | 420 kts | 215° |
| 2026-04-25 10:00 | 39.67980 | 36.93575 | 36170 ft | 419 kts | 216° |
| 2026-04-25 10:01 | 39.63060 | 36.89526 | 36188 ft | 419 kts | 216° |
| 2026-04-25 10:01 | 39.58107 | 36.85448 | 36516 ft | 421 kts | 215° |
| 2026-04-25 10:02 | 39.55638 | 36.83419 | 36815 ft | 419 kts | 215° |
| 2026-04-25 10:02 | 39.53182 | 36.81403 | 37066 ft | 417 kts | 215° |
| 2026-04-25 10:02 | 39.48252 | 36.77358 | 37126 ft | 422 kts | 215° |
| 2026-04-25 10:03 | 39.43308 | 36.73311 | 37121 ft | 418 kts | 215° |
| 2026-04-25 10:03 | 39.38438 | 36.69333 | 37129 ft | 416 kts | 215° |
| 2026-04-25 10:04 | 39.33564 | 36.65356 | 37114 ft | 413 kts | 215° |
| 2026-04-25 10:04 | 39.28710 | 36.61402 | 37125 ft | 411 kts | 215° |
| 2026-04-25 10:05 | 39.23866 | 36.57463 | 37116 ft | 413 kts | 215° |
| 2026-04-25 10:05 | 39.18968 | 36.53484 | 37118 ft | 418 kts | 215° |
| 2026-04-25 10:06 | 39.14028 | 36.49479 | 37128 ft | 421 kts | 215° |
| 2026-04-25 10:06 | 39.09057 | 36.45457 | 37108 ft | 422 kts | 215° |
| 2026-04-25 10:07 | 39.04081 | 36.41439 | 37109 ft | 422 kts | 215° |
| 2026-04-25 10:07 | 38.99109 | 36.37431 | 37111 ft | 421 kts | 215° |
| 2026-04-25 10:08 | 38.94161 | 36.33448 | 37117 ft | 419 kts | 215° |
| 2026-04-25 10:08 | 38.89233 | 36.29488 | 37109 ft | 417 kts | 215° |
| 2026-04-25 10:09 | 38.84323 | 36.25548 | 37103 ft | 415 kts | 215° |
| 2026-04-25 10:09 | 38.79427 | 36.21626 | 37096 ft | 414 kts | 215° |
| 2026-04-25 10:10 | 38.74552 | 36.17727 | 37102 ft | 413 kts | 215° |
| 2026-04-25 10:10 | 38.69682 | 36.13839 | 37096 ft | 412 kts | 215° |
| 2026-04-25 10:11 | 38.64819 | 36.09961 | 37106 ft | 412 kts | 215° |
| 2026-04-25 10:11 | 38.59986 | 36.06114 | 37098 ft | 412 kts | 215° |
| 2026-04-25 10:12 | 38.55112 | 36.02242 | 37090 ft | 413 kts | 215° |
| 2026-04-25 10:13 | 38.47790 | 35.96435 | 37091 ft | 413 kts | 215° |
| 2026-04-25 10:13 | 38.42900 | 35.92566 | 37081 ft | 414 kts | 215° |
| 2026-04-25 10:14 | 38.38000 | 35.88694 | 37083 ft | 414 kts | 215° |
| 2026-04-25 10:14 | 38.33097 | 35.84827 | 37067 ft | 415 kts | 215° |
| 2026-04-25 10:15 | 38.28195 | 35.80967 | 37079 ft | 414 kts | 215° |
| 2026-04-25 10:15 | 38.23304 | 35.77121 | 37063 ft | 413 kts | 215° |
| 2026-04-25 10:16 | 38.18424 | 35.73288 | 37065 ft | 411 kts | 215° |
| 2026-04-25 10:16 | 38.13563 | 35.69480 | 37053 ft | 409 kts | 215° |
| 2026-04-25 10:17 | 38.08721 | 35.65693 | 37053 ft | 408 kts | 215° |
| 2026-04-25 10:17 | 38.03906 | 35.61932 | 37034 ft | 406 kts | 215° |
| 2026-04-25 10:18 | 37.99107 | 35.58188 | 37052 ft | 404 kts | 215° |
| 2026-04-25 10:18 | 37.95128 | 35.55087 | 37057 ft | 404 kts | 215° |
| 2026-04-25 10:19 | 37.90343 | 35.51363 | 37050 ft | 402 kts | 215° |
| 2026-04-25 10:19 | 37.85587 | 35.47671 | 37053 ft | 401 kts | 215° |
| 2026-04-25 10:20 | 37.80826 | 35.43976 | 37028 ft | 401 kts | 215° |
| 2026-04-25 10:20 | 37.76098 | 35.40318 | 37035 ft | 399 kts | 215° |
| 2026-04-25 10:21 | 37.71367 | 35.36659 | 37051 ft | 399 kts | 215° |
| 2026-04-25 10:21 | 37.66621 | 35.32989 | 37023 ft | 401 kts | 214° |
| 2026-04-25 10:22 | 37.61855 | 35.29318 | 37033 ft | 402 kts | 214° |
| 2026-04-25 10:22 | 37.57065 | 35.25633 | 37023 ft | 404 kts | 214° |
| 2026-04-25 10:23 | 37.52255 | 35.21937 | 37027 ft | 406 kts | 214° |
| 2026-04-25 10:23 | 37.47456 | 35.18255 | 37010 ft | 407 kts | 214° |
| 2026-04-25 10:24 | 37.42749 | 35.14650 | 37017 ft | 406 kts | 214° |
| 2026-04-25 10:24 | 37.37998 | 35.11018 | 37023 ft | 401 kts | 214° |
| 2026-04-25 10:25 | 37.33244 | 35.07388 | 37002 ft | 399 kts | 214° |
| 2026-04-25 10:25 | 37.28516 | 35.03781 | 37003 ft | 397 kts | 214° |
| 2026-04-25 10:26 | 37.23807 | 35.00194 | 37011 ft | 395 kts | 214° |
| 2026-04-25 10:26 | 37.19102 | 34.96616 | 36988 ft | 395 kts | 214° |
| 2026-04-25 10:27 | 37.14393 | 34.93040 | 37004 ft | 396 kts | 214° |
| 2026-04-25 10:27 | 37.09670 | 34.89458 | 36994 ft | 398 kts | 214° |
| 2026-04-25 10:28 | 37.04925 | 34.85865 | 37012 ft | 400 kts | 214° |
| 2026-04-25 10:28 | 37.00148 | 34.82254 | 36999 ft | 402 kts | 214° |
| 2026-04-25 10:29 | 36.95352 | 34.78634 | 37005 ft | 404 kts | 214° |
| 2026-04-25 10:29 | 36.90533 | 34.75002 | 36996 ft | 405 kts | 214° |
| 2026-04-25 10:30 | 36.85700 | 34.71365 | 36997 ft | 406 kts | 214° |
| 2026-04-25 10:30 | 36.80862 | 34.67730 | 36993 ft | 406 kts | 214° |
| 2026-04-25 10:31 | 36.76065 | 34.64131 | 36997 ft | 404 kts | 214° |
| 2026-04-25 10:31 | 36.71252 | 34.60525 | 36990 ft | 403 kts | 214° |
| 2026-04-25 10:32 | 36.66454 | 34.56936 | 36996 ft | 401 kts | 214° |
| 2026-04-25 10:32 | 36.61677 | 34.53367 | 36988 ft | 400 kts | 214° |
| 2026-04-25 10:33 | 36.56914 | 34.49815 | 36991 ft | 398 kts | 214° |
| 2026-04-25 10:33 | 36.52168 | 34.46279 | 36992 ft | 397 kts | 214° |
| 2026-04-25 10:34 | 36.47428 | 34.42754 | 36996 ft | 397 kts | 214° |
| 2026-04-25 10:34 | 36.42692 | 34.39236 | 36986 ft | 397 kts | 214° |
| 2026-04-25 10:35 | 36.37957 | 34.35724 | 36994 ft | 397 kts | 214° |
| 2026-04-25 10:35 | 36.33213 | 34.32210 | 36990 ft | 397 kts | 214° |
| 2026-04-25 10:36 | 36.28461 | 34.28696 | 36991 ft | 398 kts | 214° |
| 2026-04-25 10:36 | 36.23703 | 34.25182 | 36988 ft | 399 kts | 214° |
| 2026-04-25 10:37 | 36.18933 | 34.21664 | 36991 ft | 399 kts | 214° |
| 2026-04-25 10:37 | 36.14156 | 34.18146 | 36986 ft | 400 kts | 214° |
| 2026-04-25 10:38 | 36.09372 | 34.14628 | 36991 ft | 400 kts | 214° |
| 2026-04-25 10:38 | 36.04580 | 34.11109 | 36985 ft | 401 kts | 214° |
| 2026-04-25 10:39 | 35.99788 | 34.07594 | 36988 ft | 401 kts | 214° |
| 2026-04-25 10:39 | 35.94987 | 34.04079 | 36986 ft | 401 kts | 213° |
| 2026-04-25 10:40 | 35.89790 | 34.01450 | 36993 ft | 409 kts | 199° |
| 2026-04-25 10:40 | 35.84124 | 34.00376 | 36987 ft | 414 kts | 192° |
| 2026-04-25 10:41 | 35.78401 | 33.99565 | 36995 ft | 414 kts | 192° |
| 2026-04-25 10:41 | 35.72722 | 33.98745 | 36985 ft | 413 kts | 192° |
| 2026-04-25 10:42 | 35.67012 | 33.97898 | 36987 ft | 413 kts | 192° |
| 2026-04-25 10:42 | 35.61311 | 33.97043 | 36983 ft | 413 kts | 192° |
| 2026-04-25 10:43 | 35.55617 | 33.96189 | 36985 ft | 412 kts | 192° |
| 2026-04-25 10:43 | 35.49921 | 33.95335 | 36978 ft | 412 kts | 192° |
| 2026-04-25 10:44 | 35.44234 | 33.94484 | 36984 ft | 412 kts | 192° |
| 2026-04-25 10:44 | 35.38551 | 33.93636 | 36976 ft | 411 kts | 192° |
| 2026-04-25 10:45 | 35.32873 | 33.92789 | 36984 ft | 411 kts | 193° |
| 2026-04-25 10:45 | 35.27201 | 33.91944 | 36976 ft | 410 kts | 192° |
| 2026-04-25 10:46 | 35.21535 | 33.91102 | 36975 ft | 410 kts | 193° |
| 2026-04-25 10:46 | 35.15874 | 33.90261 | 36972 ft | 409 kts | 193° |
| 2026-04-25 10:47 | 35.10220 | 33.89423 | 36964 ft | 409 kts | 193° |
| 2026-04-25 10:47 | 35.04573 | 33.88587 | 36960 ft | 409 kts | 193° |
| 2026-04-25 10:48 | 34.98927 | 33.87752 | 36949 ft | 409 kts | 193° |
| 2026-04-25 10:48 | 34.93286 | 33.86919 | 36941 ft | 408 kts | 193° |
| 2026-04-25 10:49 | 34.87691 | 33.86094 | 36944 ft | 407 kts | 193° |
| 2026-04-25 10:49 | 34.82066 | 33.85265 | 36944 ft | 407 kts | 193° |
| 2026-04-25 10:50 | 34.76444 | 33.84438 | 36948 ft | 407 kts | 193° |
| 2026-04-25 10:50 | 34.70823 | 33.83612 | 36943 ft | 407 kts | 193° |
| 2026-04-25 10:51 | 34.65196 | 33.82787 | 36936 ft | 407 kts | 193° |
| 2026-04-25 10:51 | 34.59573 | 33.81963 | 36936 ft | 407 kts | 193° |
| 2026-04-25 10:52 | 34.53961 | 33.81142 | 36933 ft | 406 kts | 193° |
| 2026-04-25 10:52 | 34.48346 | 33.80371 | 36928 ft | 408 kts | 189° |
| 2026-04-25 10:53 | 34.42611 | 33.80658 | 36928 ft | 414 kts | 183° |
| 2026-04-25 10:53 | 34.36873 | 33.81156 | 36932 ft | 413 kts | 183° |
| 2026-04-25 10:54 | 34.31211 | 33.81618 | 36934 ft | 413 kts | 183° |
| 2026-04-25 10:54 | 34.25489 | 33.82065 | 36935 ft | 412 kts | 184° |
| 2026-04-25 10:55 | 34.19767 | 33.82507 | 36939 ft | 411 kts | 184° |
| 2026-04-25 10:55 | 34.14059 | 33.82947 | 36936 ft | 411 kts | 184° |
| 2026-04-25 10:56 | 34.08355 | 33.83387 | 36940 ft | 410 kts | 184° |
| 2026-04-25 10:56 | 34.05485 | 33.83606 | 36520 ft | 416 kts | 184° |
| 2026-04-25 10:56 | 34.02643 | 33.83826 | 36091 ft | 413 kts | 184° |
| 2026-04-25 10:56 | 33.99798 | 33.84050 | 35729 ft | 406 kts | 184° |
| 2026-04-25 10:57 | 33.96992 | 33.84271 | 35269 ft | 403 kts | 184° |
| 2026-04-25 10:57 | 33.94207 | 33.84489 | 34869 ft | 399 kts | 184° |
| 2026-04-25 10:57 | 33.91450 | 33.84702 | 34458 ft | 395 kts | 184° |
| 2026-04-25 10:57 | 33.88720 | 33.84913 | 34056 ft | 392 kts | 184° |
| 2026-04-25 10:58 | 33.86010 | 33.85123 | 33612 ft | 389 kts | 184° |
| 2026-04-25 10:58 | 33.83322 | 33.85331 | 33175 ft | 385 kts | 184° |
| 2026-04-25 10:58 | 33.80661 | 33.85538 | 32764 ft | 382 kts | 184° |
| 2026-04-25 10:58 | 33.78024 | 33.85744 | 32366 ft | 378 kts | 184° |
| 2026-04-25 10:59 | 33.75410 | 33.85947 | 31969 ft | 375 kts | 184° |
| 2026-04-25 10:59 | 33.72815 | 33.86149 | 31577 ft | 372 kts | 184° |
| 2026-04-25 10:59 | 33.70298 | 33.86343 | 31201 ft | 369 kts | 184° |
| 2026-04-25 10:59 | 33.67733 | 33.86541 | 30737 ft | 369 kts | 183° |
| 2026-04-25 11:00 | 33.65183 | 33.86737 | 30393 ft | 366 kts | 183° |
| 2026-04-25 11:00 | 33.62647 | 33.86933 | 30009 ft | 364 kts | 183° |
| 2026-04-25 11:00 | 33.60126 | 33.87128 | 29574 ft | 362 kts | 183° |
| 2026-04-25 11:00 | 33.57622 | 33.87321 | 29165 ft | 359 kts | 183° |
| 2026-04-25 11:01 | 33.55142 | 33.87513 | 28782 ft | 355 kts | 183° |
| 2026-04-25 11:01 | 33.52684 | 33.87703 | 28379 ft | 353 kts | 183° |
| 2026-04-25 11:01 | 33.50246 | 33.87891 | 28004 ft | 350 kts | 183° |
| 2026-04-25 11:01 | 33.47828 | 33.88077 | 27617 ft | 347 kts | 183° |
| 2026-04-25 11:02 | 33.45425 | 33.88261 | 27237 ft | 345 kts | 183° |
| 2026-04-25 11:02 | 33.43041 | 33.88444 | 26864 ft | 342 kts | 183° |
| 2026-04-25 11:02 | 33.40670 | 33.88626 | 26494 ft | 340 kts | 183° |
| 2026-04-25 11:02 | 33.38316 | 33.88806 | 26128 ft | 338 kts | 183° |
| 2026-04-25 11:03 | 33.35975 | 33.88986 | 25763 ft | 336 kts | 183° |
| 2026-04-25 11:03 | 33.33644 | 33.89164 | 25398 ft | 335 kts | 183° |
| 2026-04-25 11:03 | 33.31325 | 33.89342 | 25028 ft | 333 kts | 182° |
| 2026-04-25 11:03 | 33.29015 | 33.89518 | 24675 ft | 332 kts | 182° |
| 2026-04-25 11:04 | 33.26713 | 33.89694 | 24315 ft | 331 kts | 182° |
| 2026-04-25 11:04 | 33.24418 | 33.89870 | 23937 ft | 331 kts | 182° |
| 2026-04-25 11:04 | 33.22123 | 33.90045 | 23570 ft | 330 kts | 182° |
| 2026-04-25 11:04 | 33.20605 | 33.90161 | 23295 ft | 330 kts | 182° |
| 2026-04-25 11:05 | 33.17530 | 33.90391 | 22603 ft | 332 kts | 182° |
| 2026-04-25 11:05 | 33.15233 | 33.90561 | 22231 ft | 330 kts | 182° |
| 2026-04-25 11:05 | 33.12948 | 33.90730 | 21854 ft | 328 kts | 182° |
| 2026-04-25 11:05 | 33.10664 | 33.90899 | 21379 ft | 329 kts | 182° |
| 2026-04-25 11:06 | 33.09162 | 33.91011 | 21233 ft | 325 kts | 182° |
| 2026-04-25 11:06 | 33.06188 | 33.91232 | 20801 ft | 321 kts | 182° |
| 2026-04-25 11:06 | 33.04685 | 33.91343 | 20557 ft | 320 kts | 182° |
| 2026-04-25 11:06 | 33.02469 | 33.91506 | 20220 ft | 318 kts | 181° |
| 2026-04-25 11:07 | 33.00267 | 33.91668 | 19874 ft | 316 kts | 181° |
| 2026-04-25 11:07 | 32.98085 | 33.91830 | 19637 ft | 312 kts | 181° |
| 2026-04-25 11:07 | 32.95927 | 33.91989 | 19319 ft | 310 kts | 181° |
| 2026-04-25 11:07 | 32.93779 | 33.92147 | 18989 ft | 308 kts | 181° |
| 2026-04-25 11:08 | 32.91643 | 33.92303 | 18664 ft | 307 kts | 181° |
| 2026-04-25 11:08 | 32.89515 | 33.92460 | 18339 ft | 306 kts | 181° |
| 2026-04-25 11:08 | 32.87392 | 33.92615 | 17977 ft | 305 kts | 181° |
| 2026-04-25 11:08 | 32.85277 | 33.92771 | 17624 ft | 304 kts | 181° |
| 2026-04-25 11:09 | 32.83173 | 33.92925 | 17273 ft | 302 kts | 181° |
| 2026-04-25 11:09 | 32.81079 | 33.93079 | 16940 ft | 301 kts | 181° |
| 2026-04-25 11:09 | 32.78997 | 33.93232 | 16606 ft | 299 kts | 181° |
| 2026-04-25 11:09 | 32.76925 | 33.93384 | 16280 ft | 298 kts | 181° |
| 2026-04-25 11:10 | 32.74864 | 33.93535 | 15951 ft | 297 kts | 181° |
| 2026-04-25 11:10 | 32.73495 | 33.93635 | 15748 ft | 298 kts | 181° |
| 2026-04-25 11:10 | 32.70708 | 33.93838 | 15318 ft | 303 kts | 181° |
| 2026-04-25 11:10 | 32.68575 | 33.93992 | 14984 ft | 310 kts | 180° |
| 2026-04-25 11:11 | 32.66403 | 33.94151 | 14642 ft | 314 kts | 180° |
| 2026-04-25 11:11 | 32.64227 | 33.94312 | 14291 ft | 313 kts | 180° |
| 2026-04-25 11:11 | 32.62094 | 33.94843 | 13978 ft | 318 kts | 157° |
| 2026-04-25 11:11 | 32.60318 | 33.96421 | 13777 ft | 323 kts | 136° |
| 2026-04-25 11:12 | 32.59025 | 33.98614 | 13530 ft | 327 kts | 123° |
| 2026-04-25 11:12 | 32.57863 | 34.00930 | 13276 ft | 327 kts | 124° |
| 2026-04-25 11:12 | 32.56686 | 34.03238 | 13016 ft | 327 kts | 124° |
| 2026-04-25 11:12 | 32.55506 | 34.05544 | 12757 ft | 327 kts | 124° |
| 2026-04-25 11:13 | 32.54328 | 34.07850 | 12501 ft | 327 kts | 124° |
| 2026-04-25 11:13 | 32.53154 | 34.10148 | 12241 ft | 326 kts | 124° |
| 2026-04-25 11:13 | 32.51983 | 34.12441 | 11994 ft | 325 kts | 124° |
| 2026-04-25 11:13 | 32.50818 | 34.14725 | 11741 ft | 323 kts | 123° |
| 2026-04-25 11:14 | 32.49657 | 34.16999 | 11489 ft | 322 kts | 123° |
| 2026-04-25 11:14 | 32.48502 | 34.19264 | 11245 ft | 320 kts | 123° |
| 2026-04-25 11:14 | 32.47352 | 34.21516 | 10995 ft | 319 kts | 123° |
| 2026-04-25 11:14 | 32.46207 | 34.23755 | 10755 ft | 317 kts | 123° |
| 2026-04-25 11:15 | 32.45070 | 34.25980 | 10513 ft | 315 kts | 123° |
| 2026-04-25 11:15 | 32.43940 | 34.28190 | 10271 ft | 313 kts | 123° |
| 2026-04-25 11:15 | 32.42814 | 34.30391 | 10035 ft | 311 kts | 123° |
| 2026-04-25 11:15 | 32.41711 | 34.32544 | 9799 ft | 308 kts | 123° |
| 2026-04-25 11:16 | 32.39517 | 34.36824 | 9271 ft | 300 kts | 123° |
| 2026-04-25 11:16 | 32.38442 | 34.38920 | 9014 ft | 296 kts | 123° |
| 2026-04-25 11:16 | 32.37379 | 34.40992 | 8747 ft | 293 kts | 122° |
| 2026-04-25 11:17 | 32.36330 | 34.43034 | 8523 ft | 288 kts | 122° |
| 2026-04-25 11:17 | 32.35297 | 34.45046 | 8378 ft | 284 kts | 122° |
| 2026-04-25 11:17 | 32.34279 | 34.47024 | 8275 ft | 280 kts | 122° |
| 2026-04-25 11:17 | 32.33274 | 34.48978 | 8170 ft | 278 kts | 122° |
| 2026-04-25 11:18 | 32.32270 | 34.50928 | 8069 ft | 277 kts | 122° |
| 2026-04-25 11:18 | 32.31266 | 34.52878 | 7971 ft | 277 kts | 122° |
| 2026-04-25 11:18 | 32.30265 | 34.54821 | 7873 ft | 276 kts | 122° |
| 2026-04-25 11:18 | 32.29266 | 34.56759 | 7773 ft | 276 kts | 122° |
| 2026-04-25 11:19 | 32.28267 | 34.58697 | 7671 ft | 277 kts | 122° |
| 2026-04-25 11:19 | 32.27262 | 34.60644 | 7579 ft | 278 kts | 122° |
| 2026-04-25 11:19 | 32.26252 | 34.62601 | 7510 ft | 280 kts | 122° |
| 2026-04-25 11:19 | 32.25234 | 34.64571 | 7433 ft | 281 kts | 122° |
| 2026-04-25 11:20 | 32.24218 | 34.66537 | 7354 ft | 280 kts | 122° |
| 2026-04-25 11:20 | 32.23203 | 34.68501 | 7290 ft | 280 kts | 122° |
| 2026-04-25 11:20 | 32.22188 | 34.70463 | 7220 ft | 280 kts | 122° |
| 2026-04-25 11:20 | 32.21171 | 34.72428 | 7155 ft | 280 kts | 122° |
| 2026-04-25 11:21 | 32.20156 | 34.74388 | 7076 ft | 279 kts | 122° |
| 2026-04-25 11:21 | 32.19144 | 34.76342 | 6996 ft | 279 kts | 122° |
| 2026-04-25 11:21 | 32.18133 | 34.78293 | 6922 ft | 278 kts | 122° |
| 2026-04-25 11:21 | 32.17126 | 34.80235 | 6859 ft | 277 kts | 122° |
| 2026-04-25 11:22 | 32.16116 | 34.82181 | 6790 ft | 279 kts | 121° |
| 2026-04-25 11:22 | 32.15446 | 34.83472 | 6738 ft | 278 kts | 122° |
| 2026-04-25 11:22 | 32.14092 | 34.86076 | 6600 ft | 279 kts | 122° |
| 2026-04-25 11:22 | 32.13080 | 34.88025 | 6517 ft | 278 kts | 121° |
| 2026-04-25 11:23 | 32.12075 | 34.89961 | 6423 ft | 276 kts | 122° |
| 2026-04-25 11:23 | 32.11075 | 34.91879 | 6339 ft | 274 kts | 121° |
| 2026-04-25 11:23 | 32.10088 | 34.93782 | 6226 ft | 269 kts | 122° |
| 2026-04-25 11:23 | 32.09113 | 34.95656 | 6119 ft | 267 kts | 122° |
| 2026-04-25 11:24 | 32.08146 | 34.97512 | 6001 ft | 265 kts | 122° |
| 2026-04-25 11:24 | 32.07192 | 34.99346 | 5903 ft | 260 kts | 122° |
| 2026-04-25 11:24 | 32.06250 | 35.01150 | 5795 ft | 257 kts | 122° |
| 2026-04-25 11:24 | 32.05318 | 35.02933 | 5691 ft | 254 kts | 122° |
| 2026-04-25 11:25 | 32.04274 | 35.04611 | 5461 ft | 254 kts | 132° |
| 2026-04-25 11:25 | 32.03070 | 35.06123 | 5229 ft | 252 kts | 134° |
| 2026-04-25 11:25 | 32.01855 | 35.07602 | 5004 ft | 251 kts | 134° |
| 2026-04-25 11:25 | 32.00656 | 35.09081 | 4796 ft | 248 kts | 133° |
| 2026-04-25 11:26 | 31.99479 | 35.10550 | 4633 ft | 245 kts | 133° |
| 2026-04-25 11:26 | 31.98328 | 35.12005 | 4461 ft | 241 kts | 132° |
| 2026-04-25 11:26 | 31.97193 | 35.13441 | 4339 ft | 237 kts | 133° |
| 2026-04-25 11:26 | 31.96089 | 35.14835 | 4287 ft | 236 kts | 133° |
| 2026-04-25 11:27 | 31.94819 | 35.16071 | 4265 ft | 239 kts | 147° |
| 2026-04-25 11:27 | 31.93322 | 35.16927 | 4228 ft | 242 kts | 165° |
| 2026-04-25 11:27 | 31.91656 | 35.17061 | 4099 ft | 243 kts | 194° |
| 2026-04-25 11:27 | 31.90599 | 35.16656 | 4081 ft | 239 kts | 201° |
| 2026-04-25 11:28 | 31.88845 | 35.15234 | 4023 ft | 224 kts | 244° |
| 2026-04-25 11:28 | 31.88586 | 35.13528 | 3985 ft | 209 kts | 285° |
| 2026-04-25 11:28 | 31.89000 | 35.11948 | 3953 ft | 197 kts | 285° |
| 2026-04-25 11:28 | 31.89424 | 35.10463 | 4007 ft | 192 kts | 293° |
| 2026-04-25 11:29 | 31.89959 | 35.09017 | 3956 ft | 192 kts | 296° |
| 2026-04-25 11:29 | 31.90575 | 35.07617 | 3764 ft | 192 kts | 300° |
| 2026-04-25 11:29 | 31.91240 | 35.06286 | 3511 ft | 187 kts | 301° |
| 2026-04-25 11:29 | 31.91909 | 35.04987 | 3292 ft | 185 kts | 302° |
| 2026-04-25 11:30 | 31.92571 | 35.03696 | 3016 ft | 182 kts | 303° |
| 2026-04-25 11:30 | 31.93184 | 35.02380 | 2749 ft | 185 kts | 303° |
| 2026-04-25 11:30 | 31.93920 | 35.01125 | 2523 ft | 188 kts | 303° |
| 2026-04-25 11:30 | 31.94591 | 34.99833 | 2252 ft | 180 kts | 302° |
| 2026-04-25 11:31 | 31.95219 | 34.98609 | 1993 ft | 168 kts | 302° |
| 2026-04-25 11:31 | 31.95805 | 34.97520 | 1778 ft | 151 kts | 301° |
| 2026-04-25 11:31 | 31.96335 | 34.96464 | 1590 ft | 150 kts | 302° |
| 2026-04-25 11:31 | 31.96852 | 34.95429 | 1381 ft | 147 kts | 302° |
| 2026-04-25 11:32 | 31.97396 | 34.94445 | 1157 ft | 140 kts | 304° |
| 2026-04-25 11:32 | 31.97919 | 34.93461 | 951 ft | 138 kts | 302° |
| 2026-04-25 11:32 | 31.98397 | 34.92501 | 789 ft | 138 kts | 302° |
| 2026-04-25 11:32 | 31.98914 | 34.91514 | 560 ft | 145 kts | 302° |
| 2026-04-25 11:33 | 31.99444 | 34.90504 | 388 ft | 144 kts | 304° |
| 2026-04-25 11:33 | 31.99959 | 34.89507 | 195 ft | 140 kts | 300° |
| 2026-04-25 11:33 | 32.00445 | 34.88559 | 117 ft | 121 kts | 301° |
| 2026-04-25 11:33 | 32.00806 | 34.87856 | 119 ft | 79 kts | 301° |
| 2026-04-25 11:34 | 32.00985 | 34.87512 | 119 ft | 25 kts | 301° |
| 2026-04-25 11:34 | 32.01051 | 34.87325 | 120 ft | 24 kts | 282° |
| 2026-04-25 11:34 | 32.01062 | 34.87191 | 120 ft | 10 kts | 273° |
| 2026-04-25 11:34 | 32.01065 | 34.87110 | 119 ft | 10 kts | 272° |
| 2026-04-25 11:35 | 32.01032 | 34.87047 | 118 ft | 10 kts | 197° |
| 2026-04-25 11:35 | 32.00985 | 34.87094 | 118 ft | 9 kts | 122° |
| 2026-04-25 11:35 | 32.00951 | 34.87159 | 119 ft | 9 kts | 122° |
| 2026-04-25 11:35 | 32.00918 | 34.87223 | 116 ft | 10 kts | 121° |
| 2026-04-25 11:36 | 32.00883 | 34.87291 | 116 ft | 10 kts | 121° |
| 2026-04-25 11:36 | 32.00848 | 34.87358 | 118 ft | 10 kts | 122° |
| 2026-04-25 11:36 | 32.00797 | 34.87457 | 117 ft | 19 kts | 121° |
| 2026-04-25 11:36 | 32.00726 | 34.87592 | 118 ft | 19 kts | 121° |
| 2026-04-25 11:37 | 32.00664 | 34.87710 | 119 ft | 13 kts | 131° |
| 2026-04-25 11:37 | 32.00584 | 34.87696 | 118 ft | 13 kts | 213° |
| 2026-04-25 11:37 | 32.00528 | 34.87619 | 118 ft | 12 kts | 236° |
| 2026-04-25 11:37 | 32.00465 | 34.87579 | 119 ft | 8 kts | 184° |
| 2026-04-25 11:38 | 32.00431 | 34.87562 | 119 ft | 3 kts | 222° |
| 2026-04-25 11:38 | 32.00425 | 34.87555 | 116 ft | 0 kts | 226° |